Time;durP1;ratioP1;P1;durP2;ratioP2;P2;SDS_P1;SDS_P2;PMS_P1;PMS_P2;Temp;Humidity;BMP_temperature;BMP_pressure;BME280_temperature;BME280_humidity;BME280_pressure;Samples;Min_cycle;Max_cycle;Signal;HPM_P1;HPM_P2
2023/12/06 00:00:30;;;;;;;6.63;4.17;;;;;;;5.45;100.00;63499.53;5050538;28;20255;-56
2023/12/06 00:02:56;;;;;;;5.30;3.87;;;;;;;5.53;100.00;63508.25;5050057;28;20224;-55
2023/12/06 00:05:22;;;;;;;5.93;4.03;;;;;;;5.43;100.00;63497.91;5050189;28;20293;-65
2023/12/06 00:07:47;;;;;;;5.80;3.73;;;;;;;5.43;100.00;63494.84;5049919;28;20214;-52
2023/12/06 00:10:12;;;;;;;8.17;3.63;;;;;;;5.52;100.00;63507.16;5049913;28;20197;-52
2023/12/06 00:12:38;;;;;;;7.03;3.87;;;;;;;5.48;100.00;63497.78;5050125;28;20213;-53
2023/12/06 00:15:04;;;;;;;5.67;4.07;;;;;;;5.55;100.00;63508.47;5032934;28;20201;-58
2023/12/06 00:17:30;;;;;;;8.77;3.37;;;;;;;5.49;100.00;63503.88;5053380;28;20613;-57
2023/12/06 00:19:55;;;;;;;6.23;4.00;;;;;;;5.56;100.00;63507.06;5053311;28;20683;-51
2023/12/06 00:22:21;;;;;;;3.63;3.23;;;;;;;5.57;100.00;63510.09;5053443;28;20228;-54
2023/12/06 00:24:46;;;;;;;4.23;2.67;;;;;;;5.43;100.00;63492.38;5053782;28;20623;-56
2023/12/06 00:27:12;;;;;;;5.87;3.40;;;;;;;5.50;100.00;63502.47;5035400;28;20290;-53
2023/12/06 00:29:37;;;;;;;4.83;3.70;;;;;;;5.50;100.00;63505.53;5035199;28;20232;-55
2023/12/06 00:32:03;;;;;;;4.60;2.93;;;;;;;5.50;100.00;63502.47;5051558;28;20209;-54
2023/12/06 00:34:28;;;;;;;5.63;2.83;;;;;;;5.53;100.00;63508.78;5053234;28;20229;-54
2023/12/06 00:36:54;;;;;;;4.30;2.60;;;;;;;5.44;100.00;63495.94;5052798;28;20214;-55
2023/12/06 00:39:19;;;;;;;5.33;3.37;;;;;;;5.62;100.00;63518.59;5053108;28;20596;-54
2023/12/06 00:41:45;;;;;;;4.17;2.73;;;;;;;5.72;100.00;63528.94;5052879;28;20213;-55
2023/12/06 00:44:10;;;;;;;4.57;3.07;;;;;;;5.69;100.00;63525.66;5053008;28;20311;-53
2023/12/06 00:46:36;;;;;;;4.03;2.80;;;;;;;5.83;100.00;63541.50;5052971;28;20210;-53
2023/12/06 00:49:03;;;;;;;4.83;2.70;;;;;;;5.74;100.00;63529.16;5053020;28;20230;-55
2023/12/06 00:51:29;;;;;;;3.43;2.50;;;;;;;5.72;100.00;63523.94;5053016;28;20208;-57
2023/12/06 00:53:55;;;;;;;5.07;3.27;;;;;;;5.64;100.00;63520.75;5034957;28;20687;-53
2023/12/06 00:56:21;;;;;;;3.77;2.60;;;;;;;5.57;100.00;63512.59;5052602;28;20281;-52
2023/12/06 00:58:46;;;;;;;5.00;3.00;;;;;;;5.58;100.00;63514.22;5052505;28;20233;-53
2023/12/06 01:01:12;;;;;;;4.73;3.43;;;;;;;5.60;100.00;63515.84;5035039;28;20205;-54
2023/12/06 01:03:40;;;;;;;5.57;2.97;;;;;;;5.68;100.00;63524.56;5052640;28;20636;-52
2023/12/06 01:06:06;;;;;;;5.83;3.43;;;;;;;5.76;100.00;63533.84;5052747;28;20227;-54
2023/12/06 01:08:32;;;;;;;5.87;2.80;;;;;;;5.78;100.00;63537.97;5052910;28;20209;-60
2023/12/06 01:10:57;;;;;;;4.57;3.27;;;;;;;5.74;100.00;63529.16;5052649;28;20267;-57
2023/12/06 01:13:23;;;;;;;4.47;2.73;;;;;;;5.69;100.00;63525.66;5052625;28;20292;-54
2023/12/06 01:15:49;;;;;;;5.90;3.33;;;;;;;5.65;100.00;63521.88;5034564;28;20190;-55
2023/12/06 01:18:14;;;;;;;5.47;3.37;;;;;;;5.74;100.00;63531.09;5052198;28;20205;-54
2023/12/06 01:20:40;;;;;;;4.03;2.63;;;;;;;5.62;100.00;63518.03;5052195;28;20201;-55
2023/12/06 01:23:06;;;;;;;2.93;2.13;;;;;;;5.62;100.00;63516.09;5051984;28;20228;-54
2023/12/06 01:25:33;;;;;;;2.93;2.47;;;;;;;5.53;100.00;63508.25;5052176;28;20197;-54
2023/12/06 01:27:59;;;;;;;3.27;2.67;;;;;;;5.48;100.00;63500.84;5051491;28;20209;-53
2023/12/06 01:30:24;;;;;;;3.93;3.03;;;;;;;5.55;100.00;63510.97;5052105;28;20265;-53
2023/12/06 01:32:50;;;;;;;5.90;3.67;;;;;;;5.62;100.00;63518.03;5034272;28;20201;-54
2023/12/06 01:35:16;;;;;;;3.47;2.70;;;;;;;5.71;100.00;63525.34;5052158;28;20184;-53
2023/12/06 01:37:41;;;;;;;3.13;2.57;;;;;;;5.71;100.00;63527.84;5052163;28;20220;-53
2023/12/06 01:40:08;;;;;;;3.60;2.63;;;;;;;5.78;100.00;63530.47;5052066;28;20271;-53
2023/12/06 01:42:34;;;;;;;4.93;3.20;;;;;;;5.72;100.00;63526.97;5051925;28;20674;-54
2023/12/06 01:45:00;;;;;;;3.77;2.87;;;;;;;5.97;100.00;63556.19;5034162;28;20196;-55
2023/12/06 01:47:27;;;;;;;3.57;2.50;;;;;;;5.85;100.00;63541.16;5051905;28;20236;-54
2023/12/06 01:49:54;;;;;;;3.53;2.67;;;;;;;5.79;100.00;63534.59;5051861;28;20198;-55
2023/12/06 01:52:21;;;;;;;3.77;2.50;;;;;;;5.84;100.00;63542.56;5051713;28;20217;-55
2023/12/06 01:54:47;;;;;;;4.73;2.63;;;;;;;5.87;100.00;63545.84;5034035;28;20654;-55
2023/12/06 01:57:13;;;;;;;3.30;2.77;;;;;;;5.99;100.00;63555.31;5051772;28;20733;-55
2023/12/06 01:59:40;;;;;;;4.33;3.03;;;;;;;5.98;100.00;63552.25;5051519;28;20202;-56
2023/12/06 02:02:06;;;;;;;3.17;2.60;;;;;;;6.01;100.00;63560.53;5052312;28;20232;-53
2023/12/06 02:04:34;;;;;;;4.57;3.07;;;;;;;6.19;100.00;63577.66;5051638;28;20544;-54
2023/12/06 02:07:00;;;;;;;3.07;2.20;;;;;;;6.16;100.00;63576.88;5051440;28;20227;-54
2023/12/06 02:09:27;;;;;;;3.90;2.30;;;;;;;6.13;100.00;63571.13;5033809;28;20197;-53
2023/12/06 02:11:53;;;;;;;3.90;2.63;;;;;;;5.93;100.00;63549.31;5051456;28;20218;-55
2023/12/06 02:14:19;;;;;;;3.77;2.83;;;;;;;6.00;100.00;63558.91;5051596;28;20205;-52
2023/12/06 02:16:46;;;;;;;4.73;2.80;;;;;;;6.01;100.00;63560.53;5051362;28;20217;-54
2023/12/06 02:19:18;;;;;;;3.47;2.30;;;;;;;6.18;100.00;63576.56;5051814;28;20629;-53
2023/12/06 02:21:46;;;;;;;4.27;2.40;;;;;;;6.10;100.00;63567.31;5051314;28;20247;-53
2023/12/06 02:24:13;;;;;;;2.83;2.20;;;;;;;6.25;100.00;63586.16;5051272;28;20698;-53
2023/12/06 02:26:38;;;;;;;3.17;1.90;;;;;;;6.15;100.00;63575.78;5051141;28;20637;-53
2023/12/06 02:29:04;;;;;;;3.60;2.57;;;;;;;6.04;100.00;63563.81;5051111;28;20205;-57
2023/12/06 02:31:29;;;;;;;3.20;2.73;;;;;;;5.93;100.00;63547.38;5050964;28;20220;-56
2023/12/06 02:33:58;;;;;;;4.37;2.80;;;;;;;6.01;100.00;63560.00;5033359;28;20286;-53
2023/12/06 02:36:25;;;;;;;4.10;2.57;;;;;;;6.18;100.00;63576.56;5033245;28;20219;-53
2023/12/06 02:38:51;;;;;;;4.90;2.80;;;;;;;6.16;100.00;63576.88;5050015;28;20218;-53
2023/12/06 02:41:17;;;;;;;4.10;2.60;;;;;;;6.21;100.00;63579.28;5050867;28;20212;-53
2023/12/06 02:43:44;;;;;;;5.07;3.03;;;;;;;6.26;100.00;63587.25;5051076;28;20236;-52
2023/12/06 02:46:11;;;;;;;4.17;2.80;;;;;;;6.20;100.00;63581.22;5051465;28;20198;-58
2023/12/06 02:48:36;;;;;;;3.70;2.63;;;;;;;6.20;100.00;63578.22;5051114;28;20228;-52
2023/12/06 02:51:02;;;;;;;4.37;2.87;;;;;;;6.28;100.00;63589.44;5050987;28;20198;-52
2023/12/06 02:53:27;;;;;;;3.33;2.53;;;;;;;6.18;100.00;63579.06;5032832;28;20259;-53
2023/12/06 02:55:53;;;;;;;4.37;2.57;;;;;;;6.30;100.00;63589.63;5050958;28;20721;-53
2023/12/06 02:58:19;;;;;;;3.70;2.57;;;;;;;6.27;100.00;63583.88;5033100;28;20244;-52
2023/12/06 03:00:44;;;;;;;6.17;3.10;;;;;;;6.21;100.00;63579.84;5050941;28;20563;-52
2023/12/06 03:03:10;;;;;;;3.37;2.30;;;;;;;6.13;100.00;63568.63;5051158;28;20226;-55
2023/12/06 03:05:36;;;;;;;3.97;2.50;;;;;;;6.10;100.00;63567.31;5051141;28;20709;-53
2023/12/06 03:08:02;;;;;;;5.13;3.23;;;;;;;6.18;100.00;63576.03;5050777;28;20213;-58
2023/12/06 03:10:28;;;;;;;3.93;2.80;;;;;;;6.06;100.00;63565.44;5033000;28;20197;-53
2023/12/06 03:12:54;;;;;;;4.63;2.97;;;;;;;6.16;100.00;63571.88;5050797;28;20213;-53
2023/12/06 03:15:19;;;;;;;4.10;3.00;;;;;;;6.24;100.00;63583.09;5032741;28;20235;-53
2023/12/06 03:17:45;;;;;;;3.43;2.70;;;;;;;6.11;100.00;63571.44;5050751;28;20252;-54
2023/12/06 03:20:10;;;;;;;3.13;2.40;;;;;;;6.04;100.00;63563.81;5050560;28;20205;-57
2023/12/06 03:22:36;;;;;;;3.87;2.60;;;;;;;6.13;100.00;63573.63;5050766;28;20217;-57
2023/12/06 03:25:02;;;;;;;6.70;2.60;;;;;;;6.24;100.00;63580.06;5050942;28;20201;-52
2023/12/06 03:27:27;;;;;;;4.00;2.77;;;;;;;6.13;100.00;63571.13;5050602;28;20213;-55
2023/12/06 03:29:53;;;;;;;3.67;2.47;;;;;;;6.13;100.00;63570.56;5050142;28;20710;-53
2023/12/06 03:32:18;;;;;;;3.83;2.60;;;;;;;6.15;100.00;63575.25;5050572;28;20198;-52
2023/12/06 03:34:44;;;;;;;3.40;2.60;;;;;;;6.23;100.00;63578.97;5032490;28;20209;-53
2023/12/06 03:37:10;;;;;;;4.30;2.30;;;;;;;6.14;100.00;63572.19;5032220;28;20628;-54
2023/12/06 03:39:35;;;;;;;2.67;2.43;;;;;;;6.02;100.00;63561.09;5050572;28;20204;-54
2023/12/06 03:42:01;;;;;;;3.37;2.30;;;;;;;5.94;100.00;63547.91;5050390;28;20278;-54
2023/12/06 03:44:26;;;;;;;2.90;2.20;;;;;;;6.02;100.00;63561.63;5050151;28;20227;-52
2023/12/06 03:46:52;;;;;;;3.10;2.23;;;;;;;5.79;100.00;63537.09;5050394;28;20212;-53
2023/12/06 03:49:18;;;;;;;2.27;1.70;;;;;;;5.86;100.00;63541.69;5050172;28;20672;-53
2023/12/06 03:51:43;;;;;;;3.00;2.20;;;;;;;5.87;100.00;63543.34;5019345;28;20304;-53
2023/12/06 03:54:09;;;;;;;3.20;2.20;;;;;;;5.80;100.00;63535.13;5053638;28;20200;-52
2023/12/06 03:56:34;;;;;;;3.23;2.43;;;;;;;5.93;100.00;63549.31;5053465;28;20227;-52
2023/12/06 03:59:00;;;;;;;3.53;2.30;;;;;;;6.04;100.00;63560.78;5054105;28;20227;-52
2023/12/06 04:01:25;;;;;;;3.53;2.70;;;;;;;6.01;100.00;63557.50;5053328;28;20208;-55
2023/12/06 04:03:51;;;;;;;3.43;2.10;;;;;;;5.87;100.00;63545.28;5053379;28;20209;-52
2023/12/06 04:06:16;;;;;;;2.97;2.07;;;;;;;5.85;100.00;63538.66;5053540;28;20208;-52
2023/12/06 04:08:42;;;;;;;2.77;1.97;;;;;;;6.02;100.00;63558.59;5035710;28;20240;-53
2023/12/06 04:11:08;;;;;;;3.00;2.20;;;;;;;6.07;100.00;63562.09;5053258;28;20216;-53
2023/12/06 04:13:33;;;;;;;4.53;2.30;;;;;;;6.18;100.00;63578.53;5035318;28;20209;-54
2023/12/06 04:15:59;;;;;;;2.23;1.70;;;;;;;6.02;100.00;63558.59;5053230;28;20207;-52
2023/12/06 04:18:24;;;;;;;3.40;2.57;;;;;;;5.98;100.00;63549.75;5078192;22;20733;-52
2023/12/06 04:20:51;;;;;;;3.30;2.30;;;;;;;6.18;100.00;63576.03;5073178;28;20560;-52
2023/12/06 04:23:17;;;;;;;2.03;1.80;;;;;;;6.14;100.00;63574.69;5056087;28;20714;-53
2023/12/06 04:25:43;;;;;;;4.47;2.33;;;;;;;6.11;100.00;63568.94;5035410;28;20197;-53
2023/12/06 04:28:08;;;;;;;3.13;2.27;;;;;;;6.10;100.00;63567.31;5052847;28;20749;-54
2023/12/06 04:30:34;;;;;;;3.00;2.37;;;;;;;6.20;100.00;63581.22;5052920;28;20211;-55
2023/12/06 04:33:00;;;;;;;6.07;2.33;;;;;;;6.25;100.00;63586.69;5052970;28;20213;-52
2023/12/06 04:35:25;;;;;;;3.07;2.03;;;;;;;6.19;100.00;63580.16;5053116;28;20279;-52
2023/12/06 04:37:51;;;;;;;4.47;2.83;;;;;;;6.28;100.00;63586.91;5034935;28;20251;-53
2023/12/06 04:40:16;;;;;;;4.13;2.57;;;;;;;6.18;100.00;63576.56;5052779;28;20206;-52
2023/12/06 04:42:42;;;;;;;3.50;2.97;;;;;;;6.28;100.00;63587.44;5053224;28;20224;-51
2023/12/06 04:45:08;;;;;;;3.50;2.70;;;;;;;6.12;100.00;63570.03;5034874;28;20193;-53
2023/12/06 04:47:34;;;;;;;3.80;2.63;;;;;;;6.15;100.00;63575.78;5052910;28;20209;-52
2023/12/06 04:49:59;;;;;;;3.87;2.53;;;;;;;6.07;100.00;63566.53;5052742;28;20189;-53
2023/12/06 04:52:25;;;;;;;3.90;2.80;;;;;;;6.04;100.00;63560.78;5053102;28;20232;-54
2023/12/06 04:54:51;;;;;;;5.13;3.03;;;;;;;5.99;100.00;63555.88;5052700;28;20202;-53
2023/12/06 04:57:17;;;;;;;2.70;2.20;;;;;;;5.98;100.00;63554.75;5052842;28;20220;-53
2023/12/06 04:59:42;;;;;;;4.23;2.37;;;;;;;5.99;100.00;63555.31;5034733;28;20524;-53
2023/12/06 05:02:08;;;;;;;3.20;2.03;;;;;;;5.95;100.00;63551.50;5051546;28;20214;-53
2023/12/06 05:04:34;;;;;;;3.40;2.73;;;;;;;5.98;100.00;63554.75;5052329;28;20267;-52
2023/12/06 05:06:59;;;;;;;4.17;2.63;;;;;;;5.92;100.00;63550.72;5052751;28;20217;-54
2023/12/06 05:09:25;;;;;;;2.97;2.40;;;;;;;6.19;100.00;63579.59;5052728;28;20209;-54
2023/12/06 05:11:50;;;;;;;4.47;2.87;;;;;;;6.32;100.00;63591.28;5052405;28;20764;-55
2023/12/06 05:14:17;;;;;;;4.27;2.67;;;;;;;6.15;100.00;63575.25;5052273;28;20207;-53
2023/12/06 05:16:49;;;;;;;6.00;2.77;;;;;;;6.13;100.00;63570.56;5052598;28;20214;-53
2023/12/06 05:19:14;;;;;;;4.57;2.50;;;;;;;6.21;100.00;63582.34;5052366;28;20632;-53
2023/12/06 05:21:40;;;;;;;2.87;2.00;;;;;;;6.19;100.00;63577.66;5052403;28;20210;-53
2023/12/06 05:24:06;;;;;;;3.43;2.80;;;;;;;6.23;100.00;63582.00;5052776;28;20224;-54
2023/12/06 05:26:32;;;;;;;3.77;2.53;;;;;;;6.27;100.00;63591.38;5051961;28;20241;-55
2023/12/06 05:28:58;;;;;;;3.37;2.70;;;;;;;6.28;100.00;63587.44;5052589;28;20208;-52
2023/12/06 05:31:24;;;;;;;6.07;2.97;;;;;;;6.32;100.00;63593.78;5052315;28;20209;-57
2023/12/06 05:33:49;;;;;;;10.97;5.37;;;;;;;6.18;100.00;63578.53;5052372;28;20744;-53
2023/12/06 05:36:15;;;;;;;9.23;4.33;;;;;;;6.15;100.00;63572.75;5052082;28;20705;-53
2023/12/06 05:38:40;;;;;;;5.00;3.40;;;;;;;6.17;100.00;63577.44;5051962;28;20193;-52
2023/12/06 05:41:06;;;;;;;3.33;2.40;;;;;;;6.22;100.00;63580.38;5052187;28;20581;-56
2023/12/06 05:43:32;;;;;;;5.30;2.90;;;;;;;6.23;100.00;63582.00;5050899;28;20206;-51
2023/12/06 05:45:58;;;;;;;8.10;3.70;;;;;;;6.29;100.00;63588.00;5050803;28;20209;-53
2023/12/06 05:48:23;;;;;;;6.23;3.80;;;;;;;6.26;100.00;63582.78;5051858;28;20201;-55
2023/12/06 05:50:49;;;;;;;3.03;2.30;;;;;;;6.13;100.00;63573.63;5052414;28;20259;-55
2023/12/06 05:53:15;;;;;;;2.90;2.20;;;;;;;6.24;100.00;63585.59;5033910;28;20595;-55
2023/12/06 05:55:41;;;;;;;6.63;3.30;;;;;;;6.23;100.00;63581.47;5051650;28;20387;-53
2023/12/06 05:58:06;;;;;;;4.00;3.03;;;;;;;6.51;100.00;63616.97;5051481;28;20326;-53
2023/12/06 06:00:32;;;;;;;3.70;2.50;;;;;;;6.48;100.00;63611.22;5051570;28;20177;-53
2023/12/06 06:03:01;;;;;;;5.77;3.50;;;;;;;6.36;100.00;63596.16;5051578;28;20214;-52
2023/12/06 06:05:27;;;;;;;8.53;2.90;;;;;;;6.44;100.00;63602.41;5033936;28;20249;-53
2023/12/06 06:07:55;;;;;;;3.67;3.10;;;;;;;6.55;100.00;63616.34;5051389;28;20280;-53
2023/12/06 06:10:20;;;;;;;5.30;3.13;;;;;;;6.57;100.00;63619.06;5051615;28;20205;-54
2023/12/06 06:12:46;;;;;;;4.67;2.73;;;;;;;6.56;100.00;63618.00;5051375;28;20266;-53
2023/12/06 06:15:12;;;;;;;4.93;2.73;;;;;;;6.33;100.00;63594.84;5033959;28;20201;-58
2023/12/06 06:17:38;;;;;;;3.83;2.60;;;;;;;6.37;100.00;63597.28;5051500;28;20217;-52
2023/12/06 06:20:05;;;;;;;5.10;2.90;;;;;;;6.51;100.00;63612.53;5051859;28;20578;-55
2023/12/06 06:22:31;;;;;;;4.07;3.00;;;;;;;6.62;100.00;63628.97;5051141;28;20328;-53
2023/12/06 06:24:57;;;;;;;6.33;3.03;;;;;;;6.75;100.00;63638.13;5051374;28;20227;-53
2023/12/06 06:27:22;;;;;;;5.27;3.03;;;;;;;6.61;100.00;63620.38;5051517;28;20585;-55
2023/12/06 06:29:48;;;;;;;7.67;2.67;;;;;;;6.44;100.00;63604.91;5050880;28;20648;-56
2023/12/06 06:32:16;;;;;;;4.00;2.67;;;;;;;6.52;100.00;63611.13;5049915;28;20284;-54
2023/12/06 06:34:42;;;;;;;4.03;3.03;;;;;;;6.39;100.00;63599.44;5051174;28;20208;-54
2023/12/06 06:37:09;;;;;;;4.43;2.90;;;;;;;6.31;100.00;63590.72;5033313;28;20223;-55
2023/12/06 06:39:34;;;;;;;5.80;3.00;;;;;;;6.34;100.00;63594.00;5051290;28;20193;-55
2023/12/06 06:42:00;;;;;;;6.43;3.00;;;;;;;5.94;100.00;63552.91;5049522;28;20296;-55
2023/12/06 06:44:28;;;;;;;3.60;2.90;;;;;;;5.98;100.00;63551.75;5049729;28;20617;-53
2023/12/06 06:46:54;;;;;;;5.30;2.90;;;;;;;5.96;100.00;63552.59;5033525;28;20234;-52
2023/12/06 06:49:19;;;;;;;5.17;3.10;;;;;;;6.02;100.00;63561.09;5051099;28;20280;-52
2023/12/06 06:51:45;;;;;;;6.33;3.07;;;;;;;6.03;100.00;63565.22;5051280;28;20300;-53
2023/12/06 06:54:11;;;;;;;4.43;3.17;;;;;;;6.05;100.00;63561.84;5033352;28;20197;-54
2023/12/06 06:56:37;;;;;;;5.83;3.37;;;;;;;6.02;100.00;63561.63;5032964;28;20217;-53
2023/12/06 06:59:02;;;;;;;7.30;3.70;;;;;;;6.11;100.00;63568.38;5051170;28;20173;-54
2023/12/06 07:01:28;;;;;;;6.27;3.60;;;;;;;5.96;100.00;63555.09;5049649;28;20678;-55
2023/12/06 07:03:54;;;;;;;7.63;4.20;;;;;;;5.96;100.00;63552.59;5050837;28;20662;-54
2023/12/06 07:06:23;;;;;;;5.47;3.90;;;;;;;6.09;100.00;63569.25;5050647;28;20684;-55
2023/12/06 07:08:49;;;;;;;6.63;4.03;;;;;;;5.94;100.00;63550.41;5050776;28;20299;-56
2023/12/06 07:11:15;;;;;;;5.20;3.40;;;;;;;5.91;100.00;63547.16;5050813;28;20280;-58
2023/12/06 07:13:41;;;;;;;4.80;3.43;;;;;;;5.98;100.00;63557.25;5050611;28;20234;-57
2023/12/06 07:16:07;;;;;;;4.93;3.90;;;;;;;6.03;100.00;63562.72;5051037;28;20208;-55
2023/12/06 07:18:33;;;;;;;6.17;3.83;;;;;;;5.98;100.00;63557.25;5051176;28;20197;-54
2023/12/06 07:20:59;;;;;;;5.00;3.60;;;;;;;6.00;100.00;63559.44;5032855;28;20288;-55
2023/12/06 07:23:25;;;;;;;7.50;5.23;;;;;;;6.07;100.00;63564.59;5033100;28;20217;-52
2023/12/06 07:25:52;;;;;;;4.30;3.70;;;;;;;6.09;100.00;63566.75;5053035;28;20220;-52
2023/12/06 07:28:18;;;;;;;7.60;4.80;;;;;;;6.21;100.00;63579.28;5054175;28;20208;-52
2023/12/06 07:30:44;;;;;;;7.23;4.13;;;;;;;6.22;100.00;63580.91;5036382;28;20216;-54
2023/12/06 07:33:10;;;;;;;5.53;4.20;;;;;;;6.28;100.00;63591.94;5054242;28;20209;-53
2023/12/06 07:35:36;;;;;;;5.43;4.40;;;;;;;6.25;100.00;63581.69;5054290;28;20204;-53
2023/12/06 07:38:02;;;;;;;7.27;4.03;;;;;;;6.23;100.00;63582.00;5054019;28;20252;-53
2023/12/06 07:40:28;;;;;;;6.30;4.13;;;;;;;6.15;100.00;63573.28;5036061;28;20201;-53
2023/12/06 07:42:54;;;;;;;8.53;4.33;;;;;;;6.18;100.00;63576.56;5054214;28;20686;-52
2023/12/06 07:45:21;;;;;;;7.97;4.27;;;;;;;6.29;100.00;63590.50;5053885;28;20284;-55
2023/12/06 07:47:46;;;;;;;4.50;3.40;;;;;;;6.24;100.00;63585.06;5053892;28;20217;-53
2023/12/06 07:50:12;;;;;;;6.03;4.03;;;;;;;6.13;100.00;63570.56;5053915;28;20189;-54
2023/12/06 07:52:39;;;;;;;6.33;4.77;;;;;;;6.21;100.00;63577.34;5035794;28;20702;-53
2023/12/06 07:55:06;;;;;;;7.40;4.30;;;;;;;6.10;100.00;63569.81;5053585;28;20225;-55
2023/12/06 07:57:36;;;;;;;6.00;3.93;;;;;;;6.13;100.00;63570.56;5036041;28;20240;-55
2023/12/06 08:00:07;;;;;;;7.17;4.60;;;;;;;6.27;100.00;63583.88;5053991;28;20252;-53
2023/12/06 08:02:34;;;;;;;11.33;4.73;;;;;;;6.15;100.00;63575.78;5053405;28;20206;-54
2023/12/06 08:05:02;;;;;;;6.53;4.33;;;;;;;6.20;100.00;63580.72;5053546;28;20197;-56
2023/12/06 08:07:28;;;;;;;6.73;4.57;;;;;;;6.20;100.00;63581.22;5036099;28;20292;-55
2023/12/06 08:09:55;;;;;;;7.13;4.70;;;;;;;6.27;100.00;63585.81;5053760;28;20246;-55
2023/12/06 08:12:20;;;;;;;6.53;4.47;;;;;;;6.27;100.00;63588.31;5053308;28;20214;-55
2023/12/06 08:14:46;;;;;;;8.83;4.43;;;;;;;6.29;100.00;63586.06;5035683;28;20193;-55
2023/12/06 08:17:11;;;;;;;9.53;4.63;;;;;;;6.23;100.00;63582.00;5053369;28;20256;-58
2023/12/06 08:19:37;;;;;;;8.00;4.63;;;;;;;6.37;100.00;63599.78;5053994;28;20205;-52
2023/12/06 08:22:04;;;;;;;8.80;5.30;;;;;;;6.27;100.00;63588.88;5052970;28;20291;-53
2023/12/06 08:24:30;;;;;;;7.53;4.27;;;;;;;6.40;100.00;63602.50;5053315;28;20197;-56
2023/12/06 08:26:56;;;;;;;8.47;4.47;;;;;;;6.25;100.00;63586.69;5035343;28;20251;-55
2023/12/06 08:29:30;;;;;;;9.50;4.33;;;;;;;6.17;100.00;63575.47;5053317;28;20714;-52
2023/12/06 08:31:56;;;;;;;8.07;4.20;;;;;;;6.28;100.00;63589.44;5053174;28;20225;-56
2023/12/06 08:34:21;;;;;;;7.90;4.50;;;;;;;6.26;100.00;63587.78;5053214;28;20204;-53
2023/12/06 08:36:47;;;;;;;6.00;4.37;;;;;;;6.23;100.00;63583.97;5052724;28;20597;-52
2023/12/06 08:39:13;;;;;;;7.97;4.03;;;;;;;6.15;100.00;63573.28;5035201;28;20289;-53
2023/12/06 08:41:38;;;;;;;9.17;4.30;;;;;;;6.28;100.00;63587.44;5053213;28;20255;-52
2023/12/06 08:44:04;;;;;;;6.30;4.00;;;;;;;6.27;100.00;63588.31;5053038;28;20210;-54
2023/12/06 08:46:31;;;;;;;7.33;4.33;;;;;;;6.15;100.00;63570.78;5053045;28;20213;-53
2023/12/06 08:48:57;;;;;;;7.37;4.53;;;;;;;6.22;100.00;63583.41;5034984;28;20217;-53
2023/12/06 08:51:23;;;;;;;6.10;3.47;;;;;;;6.26;100.00;63587.78;5052728;28;20228;-53
2023/12/06 08:53:48;;;;;;;6.23;3.80;;;;;;;6.10;100.00;63564.81;5052888;28;20523;-54
2023/12/06 08:56:14;;;;;;;7.73;4.03;;;;;;;6.12;100.00;63570.03;5035414;28;20209;-55
2023/12/06 08:58:40;;;;;;;7.03;4.20;;;;;;;6.29;100.00;63591.06;5034961;28;20212;-55
2023/12/06 09:01:05;;;;;;;6.93;4.10;;;;;;;6.05;100.00;63561.84;5052789;28;20275;-54
2023/12/06 09:03:31;;;;;;;5.93;3.73;;;;;;;6.09;100.00;63569.25;5052680;28;20221;-57
2023/12/06 09:05:57;;;;;;;9.17;3.77;;;;;;;6.17;100.00;63577.97;5052932;28;20206;-57
2023/12/06 09:08:23;;;;;;;7.03;4.23;;;;;;;6.12;100.00;63569.50;5052512;28;20227;-54
2023/12/06 09:10:52;;;;;;;6.97;4.30;;;;;;;6.16;100.00;63576.34;5052407;28;20217;-55
2023/12/06 09:13:18;;;;;;;4.77;3.90;;;;;;;6.13;100.00;63573.06;5052859;28;20212;-55
2023/12/06 09:15:44;;;;;;;6.63;4.30;;;;;;;6.16;100.00;63574.38;5052782;28;20204;-55
2023/12/06 09:18:10;;;;;;;6.87;4.47;;;;;;;6.37;100.00;63602.28;5052442;28;20216;-52
2023/12/06 09:20:36;;;;;;;5.93;4.43;;;;;;;6.44;100.00;63604.34;5052373;28;20205;-54
2023/12/06 09:23:01;;;;;;;6.73;4.20;;;;;;;6.43;100.00;63606.31;5052356;28;20262;-53
2023/12/06 09:25:27;;;;;;;6.50;4.20;;;;;;;6.51;100.00;63612.53;5052408;28;20206;-53
2023/12/06 09:27:53;;;;;;;6.50;4.13;;;;;;;6.53;100.00;63614.16;5052029;28;20270;-54
2023/12/06 09:30:19;;;;;;;6.03;4.07;;;;;;;6.47;100.00;63605.13;5052210;28;20296;-52
2023/12/06 09:32:45;;;;;;;5.43;4.07;;;;;;;6.47;100.00;63608.16;5052251;28;20213;-51
2023/12/06 09:35:11;;;;;;;10.30;4.03;;;;;;;6.67;100.00;63626.91;5052069;28;20213;-51
2023/12/06 09:37:36;;;;;;;6.90;5.20;;;;;;;6.61;100.00;63623.44;5051969;28;20355;-50
2023/12/06 09:40:02;;;;;;;7.00;4.50;;;;;;;6.62;100.00;63624.53;5034331;28;20291;-54
2023/12/06 09:42:29;;;;;;;7.00;4.20;;;;;;;6.68;100.00;63628.00;5051734;28;20221;-53
2023/12/06 09:44:58;;;;;;;6.00;3.90;;;;;;;6.66;100.00;63628.34;5034392;28;20220;-55
2023/12/06 09:47:24;;;;;;;9.07;4.00;;;;;;;6.74;100.00;63637.59;5051752;28;20229;-58
2023/12/06 09:49:50;;;;;;;4.97;3.70;;;;;;;6.84;100.00;63647.97;5051868;28;20202;-54
2023/12/06 09:52:23;;;;;;;5.53;3.67;;;;;;;6.91;100.00;63658.09;5052129;28;20212;-55
2023/12/06 09:54:50;;;;;;;6.07;4.07;;;;;;;6.77;100.00;63640.88;5051995;28;20205;-54
2023/12/06 09:57:16;;;;;;;5.17;3.93;;;;;;;6.97;100.00;63662.13;5033678;28;20245;-55
2023/12/06 09:59:42;;;;;;;6.17;4.07;;;;;;;7.06;100.00;63669.44;5051735;28;20205;-54
2023/12/06 10:02:08;;;;;;;9.77;4.00;;;;;;;6.91;100.00;63657.56;5051872;28;20276;-58
2023/12/06 10:04:36;;;;;;;5.43;3.70;;;;;;;7.00;100.00;63664.84;5051909;28;20221;-54
2023/12/06 10:07:02;;;;;;;4.97;3.70;;;;;;;6.92;100.00;63656.13;5051565;28;20224;-54
2023/12/06 10:09:28;;;;;;;6.10;3.40;;;;;;;7.04;100.00;63671.72;5051918;28;20263;-52
2023/12/06 10:12:09;;;;;;;5.43;3.73;;;;;;;7.13;100.00;63679.56;5052084;28;20221;-56
2023/12/06 10:14:34;;;;;;;9.17;3.93;;;;;;;6.95;100.00;63659.94;5051298;28;20205;-55
2023/12/06 10:17:00;;;;;;;9.30;3.63;;;;;;;7.14;100.00;63682.63;5051677;28;20323;-54
2023/12/06 10:19:26;;;;;;;4.77;3.33;;;;;;;6.98;100.00;63662.69;5051510;28;20206;-55
2023/12/06 10:21:53;;;;;;;4.03;2.90;;;;;;;6.81;100.00;63644.16;5051322;28;20699;-53
2023/12/06 10:24:18;;;;;;;5.00;2.50;;;;;;;6.77;100.00;63642.81;5051636;28;20673;-55
2023/12/06 10:26:44;;;;;;;3.03;2.60;;;;;;;6.83;100.00;63644.34;5051001;28;20318;-54
2023/12/06 10:29:12;;;;;;;8.87;3.23;;;;;;;6.83;100.00;63649.38;5051836;28;20228;-55
2023/12/06 10:31:38;;;;;;;5.50;2.37;;;;;;;6.78;100.00;63641.41;5051609;28;20300;-51
2023/12/06 10:34:05;;;;;;;5.13;2.70;;;;;;;6.93;100.00;63657.25;5051279;28;20292;-54
2023/12/06 10:36:32;;;;;;;6.07;2.77;;;;;;;7.02;100.00;63667.03;5051260;28;20243;-54
2023/12/06 10:38:59;;;;;;;3.53;2.53;;;;;;;7.00;100.00;63665.41;5050897;28;20255;-55
2023/12/06 10:41:25;;;;;;;3.93;2.87;;;;;;;6.96;100.00;63663.00;5051193;28;20287;-54
2023/12/06 10:43:54;;;;;;;3.10;2.40;;;;;;;7.17;100.00;63683.41;5051476;28;20224;-54
2023/12/06 10:46:21;;;;;;;3.30;2.57;;;;;;;7.01;100.00;63668.47;5051080;28;20221;-55
2023/12/06 10:48:48;;;;;;;3.23;2.37;;;;;;;7.15;100.00;63683.72;5051180;28;20694;-53
2023/12/06 10:51:16;;;;;;;4.57;2.80;;;;;;;7.12;100.00;63678.50;5051151;28;20213;-53
2023/12/06 10:53:45;;;;;;;4.90;2.87;;;;;;;7.10;100.00;63678.25;5051166;28;20197;-53
2023/12/06 10:56:13;;;;;;;7.27;2.77;;;;;;;7.19;100.00;63685.59;5050970;28;20663;-53
2023/12/06 10:58:39;;;;;;;3.67;2.70;;;;;;;7.14;100.00;63680.69;5050665;28;20214;-53
2023/12/06 11:01:05;;;;;;;6.77;2.33;;;;;;;7.09;100.00;63677.19;5050037;28;20229;-54
2023/12/06 11:03:31;;;;;;;3.33;2.10;;;;;;;7.11;100.00;63676.88;5033590;28;20676;-54
2023/12/06 11:06:10;;;;;;;4.73;2.20;;;;;;;7.12;100.00;63681.00;5050805;28;20232;-53
2023/12/06 11:09:00;;;;;;;3.33;2.10;;;;;;;7.25;100.00;63692.13;5032621;28;20296;-56
2023/12/06 11:11:57;;;;;;;4.23;2.80;;;;;;;7.18;100.00;63687.53;5050754;28;20744;-56
2023/12/06 11:15:06;;;;;;;3.40;2.57;;;;;;;7.04;100.00;63669.78;5032651;28;20296;-58
2023/12/06 11:17:49;;;;;;;3.03;1.97;;;;;;;7.10;100.00;63676.31;5032803;28;20303;-55
2023/12/06 11:20:15;;;;;;;4.40;1.90;;;;;;;7.02;100.00;63667.03;5050685;28;20213;-55
2023/12/06 11:22:42;;;;;;;3.67;2.53;;;;;;;7.09;100.00;63674.69;5050747;28;20218;-55
2023/12/06 11:25:09;;;;;;;3.27;2.40;;;;;;;7.04;100.00;63669.78;5050453;28;20226;-55
2023/12/06 11:27:40;;;;;;;3.57;2.60;;;;;;;7.15;100.00;63681.22;5032606;28;20221;-55
2023/12/06 11:30:18;;;;;;;4.03;2.93;;;;;;;7.02;100.00;63667.03;5050632;28;20205;-54